sensor_id;sensor_type;location;lat;lon;timestamp;P1;durP1;ratioP1;P2;durP2;ratioP2
80199;SDS011;69520;44.900;-0.764;2024-03-07T06:35:12;5.93;;;1.52;;
80199;SDS011;69520;44.900;-0.764;2024-03-07T06:37:38;5.93;;;1.60;;
80199;SDS011;69520;44.900;-0.764;2024-03-07T06:40:05;8.43;;;1.88;;
80199;SDS011;69520;44.900;-0.764;2024-03-07T06:42:34;6.20;;;1.53;;
80199;SDS011;69520;44.900;-0.764;2024-03-07T06:45:02;8.88;;;2.13;;
80199;SDS011;69520;44.900;-0.764;2024-03-07T06:47:28;7.70;;;1.92;;
80199;SDS011;69520;44.900;-0.764;2024-03-07T06:49:54;9.05;;;2.03;;
80199;SDS011;69520;44.900;-0.764;2024-03-07T06:52:21;7.60;;;2.08;;
80199;SDS011;69520;44.900;-0.764;2024-03-07T06:54:47;7.60;;;2.13;;
80199;SDS011;69520;44.900;-0.764;2024-03-07T06:57:13;7.30;;;1.88;;
80199;SDS011;69520;44.900;-0.764;2024-03-07T06:59:43;6.95;;;1.83;;
80199;SDS011;69520;44.900;-0.764;2024-03-07T07:02:09;6.43;;;1.60;;
80199;SDS011;69520;44.900;-0.764;2024-03-07T07:04:35;8.27;;;2.30;;
80199;SDS011;69520;44.900;-0.764;2024-03-07T07:07:10;6.70;;;1.70;;
80199;SDS011;69520;44.900;-0.764;2024-03-07T07:09:38;6.85;;;1.92;;
80199;SDS011;69520;44.900;-0.764;2024-03-07T07:12:04;7.18;;;2.22;;
80199;SDS011;69520;44.900;-0.764;2024-03-07T07:14:31;6.35;;;1.90;;
80199;SDS011;69520;44.900;-0.764;2024-03-07T07:16:57;6.18;;;1.85;;
80199;SDS011;69520;44.900;-0.764;2024-03-07T07:19:24;7.40;;;1.73;;
80199;SDS011;69520;44.900;-0.764;2024-03-07T07:21:51;6.05;;;1.70;;
80199;SDS011;69520;44.900;-0.764;2024-03-07T07:24:21;6.00;;;1.60;;
80199;SDS011;69520;44.900;-0.764;2024-03-07T07:26:48;6.28;;;1.50;;
80199;SDS011;69520;44.900;-0.764;2024-03-07T07:29:15;8.00;;;1.67;;
80199;SDS011;69520;44.900;-0.764;2024-03-07T07:31:41;6.20;;;1.47;;
80199;SDS011;69520;44.900;-0.764;2024-03-07T07:34:07;6.32;;;1.60;;
80199;SDS011;69520;44.900;-0.764;2024-03-07T07:36:34;5.78;;;1.60;;
80199;SDS011;69520;44.900;-0.764;2024-03-07T07:39:00;9.20;;;1.50;;
80199;SDS011;69520;44.900;-0.764;2024-03-07T07:41:28;7.65;;;1.55;;
80199;SDS011;69520;44.900;-0.764;2024-03-07T07:43:55;6.10;;;1.50;;
80199;SDS011;69520;44.900;-0.764;2024-03-07T07:46:22;6.60;;;1.40;;
80199;SDS011;69520;44.900;-0.764;2024-03-07T07:48:48;6.38;;;1.40;;
80199;SDS011;69520;44.900;-0.764;2024-03-07T07:51:14;5.78;;;1.40;;
80199;SDS011;69520;44.900;-0.764;2024-03-07T07:53:40;5.82;;;1.38;;
80199;SDS011;69520;44.900;-0.764;2024-03-07T07:56:07;7.20;;;1.60;;
80199;SDS011;69520;44.900;-0.764;2024-03-07T07:58:34;7.55;;;1.50;;
80199;SDS011;69520;44.900;-0.764;2024-03-07T08:01:00;5.68;;;1.60;;
80199;SDS011;69520;44.900;-0.764;2024-03-07T08:03:26;5.72;;;1.50;;
80199;SDS011;69520;44.900;-0.764;2024-03-07T08:05:52;5.85;;;1.30;;
80199;SDS011;69520;44.900;-0.764;2024-03-07T08:08:19;5.60;;;1.20;;
80199;SDS011;69520;44.900;-0.764;2024-03-07T08:10:46;5.70;;;1.50;;
80199;SDS011;69520;44.900;-0.764;2024-03-07T08:13:13;5.47;;;1.40;;
80199;SDS011;69520;44.900;-0.764;2024-03-07T08:15:39;7.22;;;2.80;;
80199;SDS011;69520;44.900;-0.764;2024-03-07T08:18:06;10.50;;;5.05;;
80199;SDS011;69520;44.900;-0.764;2024-03-07T12:52:24;5.20;;;1.30;;
80199;SDS011;69520;44.900;-0.764;2024-03-07T12:54:50;4.18;;;1.15;;
80199;SDS011;69520;44.900;-0.764;2024-03-07T12:57:16;4.75;;;1.20;;
80199;SDS011;69520;44.900;-0.764;2024-03-07T12:59:43;4.20;;;1.30;;
80199;SDS011;69520;44.900;-0.764;2024-03-07T13:02:09;4.30;;;1.33;;
80199;SDS011;69520;44.900;-0.764;2024-03-07T13:04:36;5.35;;;1.38;;
80199;SDS011;69520;44.900;-0.764;2024-03-07T13:07:05;4.93;;;1.50;;
80199;SDS011;69520;44.900;-0.764;2024-03-07T13:09:34;4.50;;;1.15;;
80199;SDS011;69520;44.900;-0.764;2024-03-07T13:12:00;5.13;;;0.90;;
80199;SDS011;69520;44.900;-0.764;2024-03-07T13:14:28;4.68;;;1.10;;
80199;SDS011;69520;44.900;-0.764;2024-03-07T13:17:01;5.55;;;1.10;;
80199;SDS011;69520;44.900;-0.764;2024-03-07T13:19:27;3.17;;;0.73;;
80199;SDS011;69520;44.900;-0.764;2024-03-07T13:21:55;3.65;;;0.95;;
80199;SDS011;69520;44.900;-0.764;2024-03-07T13:24:24;5.27;;;1.17;;
80199;SDS011;69520;44.900;-0.764;2024-03-07T13:26:50;3.35;;;0.90;;
80199;SDS011;69520;44.900;-0.764;2024-03-07T13:29:16;4.40;;;0.77;;
80199;SDS011;69520;44.900;-0.764;2024-03-07T13:31:50;5.53;;;0.90;;
80199;SDS011;69520;44.900;-0.764;2024-03-07T13:34:17;2.22;;;0.60;;
80199;SDS011;69520;44.900;-0.764;2024-03-07T13:36:44;4.73;;;1.23;;
80199;SDS011;69520;44.900;-0.764;2024-03-07T13:39:11;4.38;;;0.90;;
80199;SDS011;69520;44.900;-0.764;2024-03-07T13:41:40;3.80;;;0.80;;
80199;SDS011;69520;44.900;-0.764;2024-03-07T13:44:06;3.42;;;0.70;;
80199;SDS011;69520;44.900;-0.764;2024-03-07T13:46:32;4.60;;;0.90;;
80199;SDS011;69520;44.900;-0.764;2024-03-07T13:49:02;4.10;;;0.90;;
80199;SDS011;69520;44.900;-0.764;2024-03-07T13:51:35;5.70;;;0.80;;
80199;SDS011;69520;44.900;-0.764;2024-03-07T13:54:02;3.25;;;0.77;;
80199;SDS011;69520;44.900;-0.764;2024-03-07T13:57:38;3.47;;;0.80;;
80199;SDS011;69520;44.900;-0.764;2024-03-07T14:05:24;4.55;;;0.80;;
80199;SDS011;69520;44.900;-0.764;2024-03-07T14:08:00;3.47;;;0.88;;
80199;SDS011;69520;44.900;-0.764;2024-03-07T14:13:26;4.15;;;0.98;;
80199;SDS011;69520;44.900;-0.764;2024-03-07T14:16:12;5.87;;;1.10;;
80199;SDS011;69520;44.900;-0.764;2024-03-07T14:32:51;3.15;;;0.88;;
80199;SDS011;69520;44.900;-0.764;2024-03-07T14:40:49;4.57;;;0.90;;
80199;SDS011;69520;44.900;-0.764;2024-03-07T14:43:16;3.17;;;0.73;;
80199;SDS011;69520;44.900;-0.764;2024-03-07T14:45:42;4.75;;;0.95;;
80199;SDS011;69520;44.900;-0.764;2024-03-07T14:48:09;4.45;;;0.90;;
80199;SDS011;69520;44.900;-0.764;2024-03-07T14:50:37;4.57;;;0.93;;
80199;SDS011;69520;44.900;-0.764;2024-03-07T14:53:05;3.22;;;0.70;;
80199;SDS011;69520;44.900;-0.764;2024-03-07T14:55:31;4.40;;;0.70;;
80199;SDS011;69520;44.900;-0.764;2024-03-07T14:58:00;3.83;;;0.70;;
80199;SDS011;69520;44.900;-0.764;2024-03-07T15:00:27;3.10;;;0.70;;
80199;SDS011;69520;44.900;-0.764;2024-03-07T15:02:53;4.35;;;1.20;;
80199;SDS011;69520;44.900;-0.764;2024-03-07T15:05:23;4.63;;;0.80;;
80199;SDS011;69520;44.900;-0.764;2024-03-07T15:07:50;5.60;;;1.00;;
80199;SDS011;69520;44.900;-0.764;2024-03-07T15:10:24;3.00;;;0.82;;
80199;SDS011;69520;44.900;-0.764;2024-03-07T15:12:52;4.03;;;0.82;;
80199;SDS011;69520;44.900;-0.764;2024-03-07T15:15:18;3.40;;;0.90;;
80199;SDS011;69520;44.900;-0.764;2024-03-07T15:17:45;4.07;;;0.70;;
80199;SDS011;69520;44.900;-0.764;2024-03-07T15:20:11;3.87;;;0.80;;
80199;SDS011;69520;44.900;-0.764;2024-03-07T15:22:58;4.13;;;0.77;;
80199;SDS011;69520;44.900;-0.764;2024-03-07T15:25:24;3.92;;;0.70;;
80199;SDS011;69520;44.900;-0.764;2024-03-07T15:27:51;4.57;;;1.00;;
80199;SDS011;69520;44.900;-0.764;2024-03-07T15:30:18;7.32;;;0.88;;
80199;SDS011;69520;44.900;-0.764;2024-03-07T15:32:44;2.97;;;0.70;;
80199;SDS011;69520;44.900;-0.764;2024-03-07T15:35:11;3.63;;;0.90;;
80199;SDS011;69520;44.900;-0.764;2024-03-07T15:37:52;3.92;;;0.88;;
80199;SDS011;69520;44.900;-0.764;2024-03-07T15:40:19;3.45;;;0.80;;
80199;SDS011;69520;44.900;-0.764;2024-03-07T15:42:46;4.53;;;0.70;;
80199;SDS011;69520;44.900;-0.764;2024-03-07T15:45:22;4.70;;;0.83;;
80199;SDS011;69520;44.900;-0.764;2024-03-07T15:47:50;4.32;;;0.80;;
80199;SDS011;69520;44.900;-0.764;2024-03-07T15:50:16;3.63;;;0.80;;
80199;SDS011;69520;44.900;-0.764;2024-03-07T15:52:46;5.00;;;0.90;;
80199;SDS011;69520;44.900;-0.764;2024-03-07T15:55:12;3.95;;;0.80;;
80199;SDS011;69520;44.900;-0.764;2024-03-07T15:57:45;3.07;;;0.83;;
80199;SDS011;69520;44.900;-0.764;2024-03-07T16:00:12;4.15;;;0.95;;
80199;SDS011;69520;44.900;-0.764;2024-03-07T16:05:21;3.83;;;0.88;;
80199;SDS011;69520;44.900;-0.764;2024-03-07T16:07:48;4.35;;;0.90;;
80199;SDS011;69520;44.900;-0.764;2024-03-07T16:10:14;3.73;;;0.90;;
80199;SDS011;69520;44.900;-0.764;2024-03-07T16:12:40;4.28;;;0.80;;
80199;SDS011;69520;44.900;-0.764;2024-03-07T16:15:07;4.43;;;1.00;;
80199;SDS011;69520;44.900;-0.764;2024-03-07T16:17:35;3.55;;;1.00;;
80199;SDS011;69520;44.900;-0.764;2024-03-07T16:20:04;3.40;;;0.68;;
80199;SDS011;69520;44.900;-0.764;2024-03-07T16:22:36;4.70;;;1.00;;
80199;SDS011;69520;44.900;-0.764;2024-03-07T16:25:04;4.78;;;0.90;;
80199;SDS011;69520;44.900;-0.764;2024-03-07T16:27:31;6.38;;;1.00;;
80199;SDS011;69520;44.900;-0.764;2024-03-07T16:29:57;3.95;;;0.93;;
80199;SDS011;69520;44.900;-0.764;2024-03-07T16:32:23;4.55;;;0.85;;
80199;SDS011;69520;44.900;-0.764;2024-03-07T16:34:49;5.20;;;0.90;;
80199;SDS011;69520;44.900;-0.764;2024-03-07T16:37:15;4.78;;;1.10;;
80199;SDS011;69520;44.900;-0.764;2024-03-07T16:39:41;4.05;;;1.08;;
80199;SDS011;69520;44.900;-0.764;2024-03-07T16:42:08;4.47;;;1.00;;
80199;SDS011;69520;44.900;-0.764;2024-03-07T16:44:39;4.40;;;1.05;;
80199;SDS011;69520;44.900;-0.764;2024-03-07T16:47:05;5.33;;;1.30;;
80199;SDS011;69520;44.900;-0.764;2024-03-07T16:49:37;4.93;;;1.00;;
80199;SDS011;69520;44.900;-0.764;2024-03-07T16:52:04;5.72;;;1.20;;
80199;SDS011;69520;44.900;-0.764;2024-03-07T16:54:31;5.72;;;1.45;;
80199;SDS011;69520;44.900;-0.764;2024-03-07T16:57:00;5.18;;;1.35;;
80199;SDS011;69520;44.900;-0.764;2024-03-07T16:59:26;4.47;;;1.20;;
80199;SDS011;69520;44.900;-0.764;2024-03-07T17:01:54;6.07;;;1.40;;
80199;SDS011;69520;44.900;-0.764;2024-03-07T17:04:20;7.05;;;1.45;;
80199;SDS011;69520;44.900;-0.764;2024-03-07T17:06:46;5.05;;;1.30;;
80199;SDS011;69520;44.900;-0.764;2024-03-07T17:09:12;5.45;;;1.30;;
80199;SDS011;69520;44.900;-0.764;2024-03-07T17:11:44;6.37;;;1.63;;
80199;SDS011;69520;44.900;-0.764;2024-03-07T17:14:10;6.03;;;1.30;;
80199;SDS011;69520;44.900;-0.764;2024-03-07T17:16:38;7.53;;;1.85;;
80199;SDS011;69520;44.900;-0.764;2024-03-07T17:19:05;5.25;;;1.20;;
80199;SDS011;69520;44.900;-0.764;2024-03-07T17:21:35;5.70;;;1.30;;
80199;SDS011;69520;44.900;-0.764;2024-03-07T17:24:01;7.10;;;1.63;;
80199;SDS011;69520;44.900;-0.764;2024-03-07T17:26:30;6.28;;;1.50;;
80199;SDS011;69520;44.900;-0.764;2024-03-07T17:28:56;5.63;;;1.50;;
80199;SDS011;69520;44.900;-0.764;2024-03-07T17:31:22;6.68;;;1.60;;
80199;SDS011;69520;44.900;-0.764;2024-03-07T17:33:48;5.53;;;1.85;;
80199;SDS011;69520;44.900;-0.764;2024-03-07T17:36:16;7.17;;;1.90;;
80199;SDS011;69520;44.900;-0.764;2024-03-07T17:38:45;6.25;;;1.80;;
80199;SDS011;69520;44.900;-0.764;2024-03-07T17:41:11;6.32;;;2.05;;
80199;SDS011;69520;44.900;-0.764;2024-03-07T17:43:37;7.45;;;2.00;;
80199;SDS011;69520;44.900;-0.764;2024-03-07T17:46:03;7.78;;;2.03;;
80199;SDS011;69520;44.900;-0.764;2024-03-07T17:48:32;6.83;;;2.00;;
80199;SDS011;69520;44.900;-0.764;2024-03-07T17:51:01;6.35;;;1.92;;
80199;SDS011;69520;44.900;-0.764;2024-03-07T17:53:29;6.85;;;2.60;;
80199;SDS011;69520;44.900;-0.764;2024-03-07T17:55:56;7.28;;;2.15;;
80199;SDS011;69520;44.900;-0.764;2024-03-07T17:58:23;6.43;;;1.95;;
80199;SDS011;69520;44.900;-0.764;2024-03-07T18:00:49;6.17;;;1.70;;
80199;SDS011;69520;44.900;-0.764;2024-03-07T18:03:15;7.43;;;1.85;;
80199;SDS011;69520;44.900;-0.764;2024-03-07T18:05:44;7.00;;;1.73;;
80199;SDS011;69520;44.900;-0.764;2024-03-07T18:08:18;8.00;;;1.60;;
80199;SDS011;69520;44.900;-0.764;2024-03-07T18:10:44;6.53;;;1.67;;
80199;SDS011;69520;44.900;-0.764;2024-03-07T18:13:12;7.83;;;1.90;;
80199;SDS011;69520;44.900;-0.764;2024-03-07T18:15:40;6.63;;;1.90;;
80199;SDS011;69520;44.900;-0.764;2024-03-07T18:18:06;5.20;;;1.52;;
80199;SDS011;69520;44.900;-0.764;2024-03-07T18:20:35;7.43;;;2.05;;
80199;SDS011;69520;44.900;-0.764;2024-03-07T18:23:04;6.03;;;1.80;;
80199;SDS011;69520;44.900;-0.764;2024-03-07T18:25:34;5.90;;;1.90;;
80199;SDS011;69520;44.900;-0.764;2024-03-07T18:28:01;7.03;;;2.10;;
80199;SDS011;69520;44.900;-0.764;2024-03-07T18:30:30;6.53;;;1.85;;
80199;SDS011;69520;44.900;-0.764;2024-03-07T18:32:57;6.35;;;2.00;;
80199;SDS011;69520;44.900;-0.764;2024-03-07T18:35:24;6.30;;;1.70;;
80199;SDS011;69520;44.900;-0.764;2024-03-07T18:37:50;5.00;;;1.30;;
80199;SDS011;69520;44.900;-0.764;2024-03-07T18:40:17;5.75;;;1.80;;
80199;SDS011;69520;44.900;-0.764;2024-03-07T18:42:48;5.90;;;1.77;;
80199;SDS011;69520;44.900;-0.764;2024-03-07T18:45:20;8.55;;;2.00;;
80199;SDS011;69520;44.900;-0.764;2024-03-07T18:47:47;6.38;;;2.00;;
80199;SDS011;69520;44.900;-0.764;2024-03-07T18:50:17;4.80;;;1.20;;
80199;SDS011;69520;44.900;-0.764;2024-03-07T18:52:45;6.13;;;1.60;;
80199;SDS011;69520;44.900;-0.764;2024-03-07T18:55:12;7.47;;;1.58;;
80199;SDS011;69520;44.900;-0.764;2024-03-07T19:00:23;7.28;;;1.75;;
80199;SDS011;69520;44.900;-0.764;2024-03-07T19:03:09;6.47;;;1.70;;
80199;SDS011;69520;44.900;-0.764;2024-03-07T19:05:35;6.30;;;1.67;;
80199;SDS011;69520;44.900;-0.764;2024-03-07T19:08:11;7.82;;;1.73;;
80199;SDS011;69520;44.900;-0.764;2024-03-07T19:10:51;5.00;;;1.42;;
80199;SDS011;69520;44.900;-0.764;2024-03-07T19:13:18;5.40;;;1.38;;
80199;SDS011;69520;44.900;-0.764;2024-03-07T19:15:48;6.03;;;1.80;;
80199;SDS011;69520;44.900;-0.764;2024-03-07T19:18:14;5.43;;;1.50;;
80199;SDS011;69520;44.900;-0.764;2024-03-07T19:20:42;4.93;;;1.50;;
80199;SDS011;69520;44.900;-0.764;2024-03-07T19:23:09;6.20;;;1.40;;
80199;SDS011;69520;44.900;-0.764;2024-03-07T19:25:38;6.53;;;1.73;;
80199;SDS011;69520;44.900;-0.764;2024-03-07T19:28:05;5.30;;;1.30;;
80199;SDS011;69520;44.900;-0.764;2024-03-07T19:30:40;6.80;;;1.30;;
80199;SDS011;69520;44.900;-0.764;2024-03-07T19:33:07;5.97;;;1.38;;
80199;SDS011;69520;44.900;-0.764;2024-03-07T19:35:52;6.00;;;1.70;;
80199;SDS011;69520;44.900;-0.764;2024-03-07T19:38:24;5.32;;;1.70;;
80199;SDS011;69520;44.900;-0.764;2024-03-07T19:40:50;6.17;;;1.73;;
80199;SDS011;69520;44.900;-0.764;2024-03-07T19:43:17;6.03;;;1.77;;
80199;SDS011;69520;44.900;-0.764;2024-03-07T19:45:48;6.95;;;2.20;;
80199;SDS011;69520;44.900;-0.764;2024-03-07T19:48:14;5.93;;;1.50;;
80199;SDS011;69520;44.900;-0.764;2024-03-07T19:50:41;6.93;;;1.98;;
80199;SDS011;69520;44.900;-0.764;2024-03-07T19:53:07;7.10;;;2.17;;
80199;SDS011;69520;44.900;-0.764;2024-03-07T19:55:38;6.30;;;1.63;;
80199;SDS011;69520;44.900;-0.764;2024-03-07T19:58:04;7.53;;;1.70;;
80199;SDS011;69520;44.900;-0.764;2024-03-07T20:00:32;5.30;;;1.40;;
80199;SDS011;69520;44.900;-0.764;2024-03-07T20:03:02;6.28;;;1.65;;
80199;SDS011;69520;44.900;-0.764;2024-03-07T20:05:31;6.87;;;1.70;;
80199;SDS011;69520;44.900;-0.764;2024-03-07T20:07:57;7.10;;;2.22;;
80199;SDS011;69520;44.900;-0.764;2024-03-07T20:10:27;5.93;;;1.63;;
80199;SDS011;69520;44.900;-0.764;2024-03-07T20:12:57;7.50;;;2.10;;
80199;SDS011;69520;44.900;-0.764;2024-03-07T20:15:24;7.28;;;1.90;;
80199;SDS011;69520;44.900;-0.764;2024-03-07T20:17:50;7.47;;;1.80;;
80199;SDS011;69520;44.900;-0.764;2024-03-07T20:20:17;5.60;;;1.80;;
80199;SDS011;69520;44.900;-0.764;2024-03-07T20:22:49;6.80;;;2.20;;
80199;SDS011;69520;44.900;-0.764;2024-03-07T20:25:17;8.65;;;2.30;;
80199;SDS011;69520;44.900;-0.764;2024-03-07T20:30:10;7.43;;;2.10;;
80199;SDS011;69520;44.900;-0.764;2024-03-07T20:32:36;10.25;;;2.60;;
80199;SDS011;69520;44.900;-0.764;2024-03-07T20:35:03;7.70;;;2.13;;
80199;SDS011;69520;44.900;-0.764;2024-03-07T20:37:33;9.32;;;2.75;;
80199;SDS011;69520;44.900;-0.764;2024-03-07T20:39:59;8.93;;;2.38;;
80199;SDS011;69520;44.900;-0.764;2024-03-07T20:42:25;6.10;;;2.00;;
80199;SDS011;69520;44.900;-0.764;2024-03-07T20:44:55;7.18;;;2.28;;
80199;SDS011;69520;44.900;-0.764;2024-03-07T20:47:21;7.43;;;2.20;;
80199;SDS011;69520;44.900;-0.764;2024-03-07T20:49:51;6.97;;;2.25;;
80199;SDS011;69520;44.900;-0.764;2024-03-07T20:52:17;7.57;;;2.03;;
80199;SDS011;69520;44.900;-0.764;2024-03-07T20:54:43;6.27;;;1.97;;
80199;SDS011;69520;44.900;-0.764;2024-03-07T20:57:11;8.02;;;2.00;;
80199;SDS011;69520;44.900;-0.764;2024-03-07T20:59:37;8.50;;;2.28;;
80199;SDS011;69520;44.900;-0.764;2024-03-07T21:02:05;6.85;;;1.70;;
80199;SDS011;69520;44.900;-0.764;2024-03-07T21:04:32;6.10;;;1.70;;
80199;SDS011;69520;44.900;-0.764;2024-03-07T21:06:58;6.73;;;2.10;;
80199;SDS011;69520;44.900;-0.764;2024-03-07T21:09:24;7.18;;;2.20;;
80199;SDS011;69520;44.900;-0.764;2024-03-07T21:11:50;9.77;;;3.00;;
80199;SDS011;69520;44.900;-0.764;2024-03-07T21:14:18;7.57;;;1.85;;
80199;SDS011;69520;44.900;-0.764;2024-03-07T21:16:44;6.93;;;1.85;;
80199;SDS011;69520;44.900;-0.764;2024-03-07T21:19:11;7.20;;;2.03;;
80199;SDS011;69520;44.900;-0.764;2024-03-07T21:21:37;6.65;;;1.58;;
80199;SDS011;69520;44.900;-0.764;2024-03-07T21:24:03;7.22;;;1.90;;
80199;SDS011;69520;44.900;-0.764;2024-03-07T21:26:29;6.13;;;1.92;;
80199;SDS011;69520;44.900;-0.764;2024-03-07T21:28:56;7.15;;;2.10;;
80199;SDS011;69520;44.900;-0.764;2024-03-07T21:31:22;6.80;;;1.90;;
80199;SDS011;69520;44.900;-0.764;2024-03-07T21:33:50;7.40;;;1.80;;
80199;SDS011;69520;44.900;-0.764;2024-03-07T21:36:16;7.78;;;2.17;;
80199;SDS011;69520;44.900;-0.764;2024-03-07T21:38:43;7.07;;;2.13;;
80199;SDS011;69520;44.900;-0.764;2024-03-07T21:41:11;6.10;;;1.80;;
80199;SDS011;69520;44.900;-0.764;2024-03-07T21:43:39;5.83;;;1.60;;
80199;SDS011;69520;44.900;-0.764;2024-03-07T21:46:05;8.10;;;1.90;;
80199;SDS011;69520;44.900;-0.764;2024-03-07T21:48:31;6.47;;;2.00;;
80199;SDS011;69520;44.900;-0.764;2024-03-07T21:50:57;6.53;;;1.85;;
80199;SDS011;69520;44.900;-0.764;2024-03-07T21:53:26;8.43;;;2.20;;
80199;SDS011;69520;44.900;-0.764;2024-03-07T21:55:53;7.03;;;1.80;;
80199;SDS011;69520;44.900;-0.764;2024-03-07T21:58:22;6.30;;;1.92;;
80199;SDS011;69520;44.900;-0.764;2024-03-07T22:00:50;6.57;;;2.00;;
80199;SDS011;69520;44.900;-0.764;2024-03-07T22:03:17;6.45;;;1.52;;
80199;SDS011;69520;44.900;-0.764;2024-03-07T22:05:43;7.55;;;1.58;;
80199;SDS011;69520;44.900;-0.764;2024-03-07T22:08:09;8.10;;;1.67;;
80199;SDS011;69520;44.900;-0.764;2024-03-07T22:10:35;5.40;;;1.77;;
80199;SDS011;69520;44.900;-0.764;2024-03-07T22:13:01;6.53;;;1.77;;
80199;SDS011;69520;44.900;-0.764;2024-03-07T22:15:27;7.53;;;2.00;;
80199;SDS011;69520;44.900;-0.764;2024-03-07T22:17:53;6.63;;;1.60;;
80199;SDS011;69520;44.900;-0.764;2024-03-07T22:20:19;6.43;;;1.60;;
80199;SDS011;69520;44.900;-0.764;2024-03-07T22:22:47;6.15;;;1.80;;
80199;SDS011;69520;44.900;-0.764;2024-03-07T22:25:13;6.43;;;1.70;;
80199;SDS011;69520;44.900;-0.764;2024-03-07T22:27:39;5.88;;;1.90;;
80199;SDS011;69520;44.900;-0.764;2024-03-07T22:30:06;6.10;;;1.90;;
